sensor_id;sensor_type;location;lat;lon;timestamp;P1;durP1;ratioP1;P2;durP2;ratioP2
38085;SDS011;23896;50.678;10.924;2023-06-14T00:02:21;6.00;;;4.50;;
38085;SDS011;23896;50.678;10.924;2023-06-14T00:04:47;5.32;;;4.63;;
38085;SDS011;23896;50.678;10.924;2023-06-14T00:07:16;20.67;;;12.52;;
38085;SDS011;23896;50.678;10.924;2023-06-14T00:09:43;8.82;;;7.95;;
38085;SDS011;23896;50.678;10.924;2023-06-14T00:12:10;5.15;;;4.70;;
38085;SDS011;23896;50.678;10.924;2023-06-14T00:14:36;8.73;;;4.70;;
38085;SDS011;23896;50.678;10.924;2023-06-14T00:17:02;7.75;;;4.72;;
38085;SDS011;23896;50.678;10.924;2023-06-14T00:19:31;7.32;;;4.90;;
38085;SDS011;23896;50.678;10.924;2023-06-14T00:21:58;7.60;;;4.80;;
38085;SDS011;23896;50.678;10.924;2023-06-14T00:24:27;4.88;;;4.38;;
38085;SDS011;23896;50.678;10.924;2023-06-14T00:26:53;6.03;;;4.68;;
38085;SDS011;23896;50.678;10.924;2023-06-14T00:29:20;8.65;;;4.95;;
38085;SDS011;23896;50.678;10.924;2023-06-14T00:31:46;5.65;;;5.03;;
38085;SDS011;23896;50.678;10.924;2023-06-14T00:34:12;4.90;;;4.20;;
38085;SDS011;23896;50.678;10.924;2023-06-14T00:36:38;7.97;;;4.82;;
38085;SDS011;23896;50.678;10.924;2023-06-14T00:39:04;5.45;;;4.47;;
38085;SDS011;23896;50.678;10.924;2023-06-14T00:41:31;6.63;;;4.22;;
38085;SDS011;23896;50.678;10.924;2023-06-14T00:43:57;6.70;;;4.70;;
38085;SDS011;23896;50.678;10.924;2023-06-14T00:46:24;7.88;;;3.92;;
38085;SDS011;23896;50.678;10.924;2023-06-14T00:48:54;6.28;;;5.03;;
38085;SDS011;23896;50.678;10.924;2023-06-14T00:51:21;8.82;;;4.88;;
38085;SDS011;23896;50.678;10.924;2023-06-14T00:53:47;7.28;;;4.75;;
38085;SDS011;23896;50.678;10.924;2023-06-14T00:56:14;7.28;;;4.93;;
38085;SDS011;23896;50.678;10.924;2023-06-14T00:58:40;5.43;;;4.93;;
38085;SDS011;23896;50.678;10.924;2023-06-14T01:01:07;5.63;;;5.05;;
38085;SDS011;23896;50.678;10.924;2023-06-14T01:03:33;4.55;;;4.15;;
38085;SDS011;23896;50.678;10.924;2023-06-14T01:06:05;6.85;;;5.03;;
38085;SDS011;23896;50.678;10.924;2023-06-14T01:08:46;8.18;;;4.63;;
38085;SDS011;23896;50.678;10.924;2023-06-14T01:11:18;8.13;;;4.85;;
38085;SDS011;23896;50.678;10.924;2023-06-14T01:13:47;5.85;;;4.55;;
38085;SDS011;23896;50.678;10.924;2023-06-14T01:16:15;5.10;;;4.70;;
38085;SDS011;23896;50.678;10.924;2023-06-14T01:18:41;4.65;;;4.35;;
38085;SDS011;23896;50.678;10.924;2023-06-14T01:21:20;4.97;;;4.28;;
38085;SDS011;23896;50.678;10.924;2023-06-14T01:23:46;4.65;;;3.72;;
38085;SDS011;23896;50.678;10.924;2023-06-14T01:26:18;5.65;;;3.90;;
38085;SDS011;23896;50.678;10.924;2023-06-14T01:28:44;5.75;;;4.80;;
38085;SDS011;23896;50.678;10.924;2023-06-14T01:31:16;6.57;;;4.60;;
38085;SDS011;23896;50.678;10.924;2023-06-14T01:33:43;5.85;;;4.50;;
38085;SDS011;23896;50.678;10.924;2023-06-14T01:36:09;4.50;;;3.92;;
38085;SDS011;23896;50.678;10.924;2023-06-14T01:38:36;9.10;;;5.20;;
38085;SDS011;23896;50.678;10.924;2023-06-14T01:41:03;9.88;;;4.88;;
38085;SDS011;23896;50.678;10.924;2023-06-14T01:43:30;8.38;;;5.25;;
38085;SDS011;23896;50.678;10.924;2023-06-14T01:45:57;8.43;;;4.70;;
38085;SDS011;23896;50.678;10.924;2023-06-14T01:48:24;4.80;;;4.32;;
38085;SDS011;23896;50.678;10.924;2023-06-14T01:50:50;5.63;;;4.88;;
38085;SDS011;23896;50.678;10.924;2023-06-14T01:53:16;7.70;;;4.43;;
38085;SDS011;23896;50.678;10.924;2023-06-14T01:55:42;7.65;;;4.47;;
38085;SDS011;23896;50.678;10.924;2023-06-14T01:58:10;5.55;;;4.97;;
38085;SDS011;23896;50.678;10.924;2023-06-14T02:00:36;6.65;;;4.90;;
38085;SDS011;23896;50.678;10.924;2023-06-14T02:03:02;6.35;;;4.55;;
38085;SDS011;23896;50.678;10.924;2023-06-14T02:05:32;7.70;;;4.80;;
38085;SDS011;23896;50.678;10.924;2023-06-14T02:07:59;6.15;;;5.18;;
38085;SDS011;23896;50.678;10.924;2023-06-14T02:10:25;6.95;;;5.28;;
38085;SDS011;23896;50.678;10.924;2023-06-14T02:12:52;6.72;;;4.90;;
38085;SDS011;23896;50.678;10.924;2023-06-14T02:15:20;8.90;;;5.40;;
38085;SDS011;23896;50.678;10.924;2023-06-14T02:17:47;5.18;;;4.68;;
38085;SDS011;23896;50.678;10.924;2023-06-14T02:20:14;7.50;;;4.57;;
38085;SDS011;23896;50.678;10.924;2023-06-14T02:22:40;8.00;;;4.82;;
38085;SDS011;23896;50.678;10.924;2023-06-14T02:25:07;5.53;;;4.82;;
38085;SDS011;23896;50.678;10.924;2023-06-14T02:27:33;6.60;;;5.22;;
38085;SDS011;23896;50.678;10.924;2023-06-14T02:30:00;5.43;;;4.93;;
38085;SDS011;23896;50.678;10.924;2023-06-14T02:32:26;5.38;;;4.97;;
38085;SDS011;23896;50.678;10.924;2023-06-14T02:34:55;5.43;;;4.80;;
38085;SDS011;23896;50.678;10.924;2023-06-14T02:37:22;5.70;;;5.07;;
38085;SDS011;23896;50.678;10.924;2023-06-14T02:39:48;8.05;;;4.80;;
38085;SDS011;23896;50.678;10.924;2023-06-14T02:42:14;4.88;;;4.20;;
38085;SDS011;23896;50.678;10.924;2023-06-14T02:44:40;5.32;;;4.82;;
38085;SDS011;23896;50.678;10.924;2023-06-14T02:47:08;4.70;;;4.30;;
38085;SDS011;23896;50.678;10.924;2023-06-14T02:49:34;5.30;;;4.80;;
38085;SDS011;23896;50.678;10.924;2023-06-14T02:52:00;5.55;;;4.53;;
38085;SDS011;23896;50.678;10.924;2023-06-14T02:54:27;8.50;;;4.68;;
38085;SDS011;23896;50.678;10.924;2023-06-14T02:56:53;5.35;;;4.70;;
38085;SDS011;23896;50.678;10.924;2023-06-14T02:59:20;5.60;;;4.95;;
38085;SDS011;23896;50.678;10.924;2023-06-14T03:01:46;7.25;;;5.00;;
38085;SDS011;23896;50.678;10.924;2023-06-14T03:04:13;6.30;;;4.88;;
38085;SDS011;23896;50.678;10.924;2023-06-14T03:06:39;6.10;;;4.88;;
38085;SDS011;23896;50.678;10.924;2023-06-14T03:09:05;13.35;;;5.60;;
38085;SDS011;23896;50.678;10.924;2023-06-14T03:11:32;6.10;;;4.72;;
38085;SDS011;23896;50.678;10.924;2023-06-14T03:13:58;7.18;;;4.40;;
38085;SDS011;23896;50.678;10.924;2023-06-14T03:16:24;8.65;;;4.15;;
38085;SDS011;23896;50.678;10.924;2023-06-14T03:18:55;5.18;;;4.68;;
38085;SDS011;23896;50.678;10.924;2023-06-14T03:21:21;5.82;;;4.57;;
38085;SDS011;23896;50.678;10.924;2023-06-14T03:23:48;4.90;;;4.40;;
38085;SDS011;23896;50.678;10.924;2023-06-14T03:26:15;7.22;;;5.50;;
38085;SDS011;23896;50.678;10.924;2023-06-14T03:28:43;7.93;;;5.38;;
38085;SDS011;23896;50.678;10.924;2023-06-14T03:31:10;9.20;;;5.10;;
38085;SDS011;23896;50.678;10.924;2023-06-14T03:33:37;6.63;;;4.80;;
38085;SDS011;23896;50.678;10.924;2023-06-14T03:36:03;9.63;;;5.15;;
38085;SDS011;23896;50.678;10.924;2023-06-14T03:38:30;7.35;;;5.72;;
38085;SDS011;23896;50.678;10.924;2023-06-14T03:40:56;5.53;;;5.03;;
38085;SDS011;23896;50.678;10.924;2023-06-14T03:43:22;6.90;;;5.25;;
38085;SDS011;23896;50.678;10.924;2023-06-14T03:45:48;8.02;;;4.80;;
38085;SDS011;23896;50.678;10.924;2023-06-14T03:48:15;6.07;;;5.57;;
38085;SDS011;23896;50.678;10.924;2023-06-14T03:50:41;6.40;;;4.90;;
38085;SDS011;23896;50.678;10.924;2023-06-14T03:53:08;6.40;;;4.85;;
38085;SDS011;23896;50.678;10.924;2023-06-14T03:55:34;5.78;;;5.13;;
38085;SDS011;23896;50.678;10.924;2023-06-14T03:58:00;11.00;;;5.15;;
38085;SDS011;23896;50.678;10.924;2023-06-14T04:00:30;5.63;;;5.07;;
38085;SDS011;23896;50.678;10.924;2023-06-14T04:02:57;5.97;;;4.82;;
38085;SDS011;23896;50.678;10.924;2023-06-14T04:05:26;4.72;;;4.30;;
38085;SDS011;23896;50.678;10.924;2023-06-14T04:07:52;6.15;;;5.43;;
38085;SDS011;23896;50.678;10.924;2023-06-14T04:10:20;5.90;;;4.65;;
38085;SDS011;23896;50.678;10.924;2023-06-14T04:12:49;6.53;;;4.60;;
38085;SDS011;23896;50.678;10.924;2023-06-14T04:15:19;5.70;;;4.90;;
38085;SDS011;23896;50.678;10.924;2023-06-14T04:17:45;6.00;;;4.93;;
38085;SDS011;23896;50.678;10.924;2023-06-14T04:20:12;7.05;;;5.10;;
38085;SDS011;23896;50.678;10.924;2023-06-14T04:22:38;8.48;;;5.20;;
38085;SDS011;23896;50.678;10.924;2023-06-14T04:25:09;7.63;;;4.82;;
38085;SDS011;23896;50.678;10.924;2023-06-14T04:27:35;7.20;;;5.68;;
38085;SDS011;23896;50.678;10.924;2023-06-14T04:30:01;5.20;;;4.70;;
38085;SDS011;23896;50.678;10.924;2023-06-14T04:32:28;7.40;;;4.68;;
38085;SDS011;23896;50.678;10.924;2023-06-14T04:34:58;7.95;;;5.13;;
38085;SDS011;23896;50.678;10.924;2023-06-14T04:37:27;6.20;;;5.03;;
38085;SDS011;23896;50.678;10.924;2023-06-14T04:39:55;9.25;;;5.07;;
38085;SDS011;23896;50.678;10.924;2023-06-14T04:42:22;10.38;;;4.97;;
38085;SDS011;23896;50.678;10.924;2023-06-14T04:44:50;10.73;;;5.82;;
38085;SDS011;23896;50.678;10.924;2023-06-14T04:47:17;10.57;;;5.00;;
38085;SDS011;23896;50.678;10.924;2023-06-14T04:49:43;7.10;;;5.53;;
38085;SDS011;23896;50.678;10.924;2023-06-14T04:52:09;6.63;;;5.40;;
38085;SDS011;23896;50.678;10.924;2023-06-14T04:54:38;9.80;;;5.25;;
38085;SDS011;23896;50.678;10.924;2023-06-14T04:57:06;6.78;;;4.68;;
38085;SDS011;23896;50.678;10.924;2023-06-14T04:59:32;5.47;;;4.80;;
38085;SDS011;23896;50.678;10.924;2023-06-14T05:02:01;5.82;;;4.10;;
38085;SDS011;23896;50.678;10.924;2023-06-14T05:04:30;5.93;;;4.53;;
38085;SDS011;23896;50.678;10.924;2023-06-14T05:06:57;5.10;;;4.43;;
38085;SDS011;23896;50.678;10.924;2023-06-14T05:09:26;4.80;;;4.40;;
38085;SDS011;23896;50.678;10.924;2023-06-14T05:11:53;5.93;;;4.50;;
38085;SDS011;23896;50.678;10.924;2023-06-14T05:14:24;9.73;;;4.57;;
38085;SDS011;23896;50.678;10.924;2023-06-14T05:16:50;5.18;;;4.20;;
38085;SDS011;23896;50.678;10.924;2023-06-14T05:19:16;5.45;;;3.95;;
38085;SDS011;23896;50.678;10.924;2023-06-14T05:21:44;6.97;;;4.60;;
38085;SDS011;23896;50.678;10.924;2023-06-14T05:24:12;8.25;;;4.43;;
38085;SDS011;23896;50.678;10.924;2023-06-14T05:26:38;6.35;;;5.38;;
38085;SDS011;23896;50.678;10.924;2023-06-14T05:29:05;10.05;;;4.80;;
38085;SDS011;23896;50.678;10.924;2023-06-14T05:31:31;7.03;;;5.18;;
38085;SDS011;23896;50.678;10.924;2023-06-14T05:33:57;4.63;;;4.20;;
38085;SDS011;23896;50.678;10.924;2023-06-14T05:36:24;5.18;;;4.68;;
38085;SDS011;23896;50.678;10.924;2023-06-14T05:38:51;6.95;;;4.55;;
38085;SDS011;23896;50.678;10.924;2023-06-14T05:41:23;5.53;;;4.60;;
38085;SDS011;23896;50.678;10.924;2023-06-14T05:43:49;7.30;;;4.55;;
38085;SDS011;23896;50.678;10.924;2023-06-14T05:46:15;4.63;;;4.22;;
38085;SDS011;23896;50.678;10.924;2023-06-14T05:48:42;9.00;;;4.60;;
38085;SDS011;23896;50.678;10.924;2023-06-14T05:51:08;6.72;;;4.57;;
38085;SDS011;23896;50.678;10.924;2023-06-14T05:53:34;8.25;;;5.68;;
38085;SDS011;23896;50.678;10.924;2023-06-14T05:56:01;7.22;;;6.07;;
38085;SDS011;23896;50.678;10.924;2023-06-14T05:58:27;11.20;;;5.50;;
38085;SDS011;23896;50.678;10.924;2023-06-14T06:00:53;8.77;;;5.97;;
38085;SDS011;23896;50.678;10.924;2023-06-14T06:03:19;7.55;;;6.10;;
38085;SDS011;23896;50.678;10.924;2023-06-14T06:05:46;8.88;;;6.70;;
38085;SDS011;23896;50.678;10.924;2023-06-14T06:08:12;11.85;;;8.38;;
38085;SDS011;23896;50.678;10.924;2023-06-14T06:10:39;6.22;;;5.63;;
38085;SDS011;23896;50.678;10.924;2023-06-14T06:13:05;8.98;;;7.60;;
38085;SDS011;23896;50.678;10.924;2023-06-14T06:15:35;6.70;;;6.00;;
38085;SDS011;23896;50.678;10.924;2023-06-14T06:18:01;7.82;;;5.40;;
38085;SDS011;23896;50.678;10.924;2023-06-14T06:20:30;5.50;;;4.93;;
38085;SDS011;23896;50.678;10.924;2023-06-14T06:22:57;16.52;;;10.15;;
38085;SDS011;23896;50.678;10.924;2023-06-14T06:25:25;9.30;;;6.95;;
38085;SDS011;23896;50.678;10.924;2023-06-14T06:27:52;13.68;;;10.95;;
38085;SDS011;23896;50.678;10.924;2023-06-14T06:30:19;10.93;;;9.55;;
38085;SDS011;23896;50.678;10.924;2023-06-14T06:32:54;6.28;;;5.22;;
38085;SDS011;23896;50.678;10.924;2023-06-14T06:35:24;6.68;;;5.13;;
38085;SDS011;23896;50.678;10.924;2023-06-14T06:37:50;7.95;;;6.28;;
38085;SDS011;23896;50.678;10.924;2023-06-14T06:40:19;9.82;;;7.50;;
38085;SDS011;23896;50.678;10.924;2023-06-14T06:42:46;7.18;;;6.53;;
38085;SDS011;23896;50.678;10.924;2023-06-14T06:45:12;9.93;;;7.18;;
38085;SDS011;23896;50.678;10.924;2023-06-14T06:47:38;4.70;;;4.30;;
38085;SDS011;23896;50.678;10.924;2023-06-14T06:50:06;12.38;;;9.35;;
38085;SDS011;23896;50.678;10.924;2023-06-14T06:52:33;6.63;;;5.30;;
38085;SDS011;23896;50.678;10.924;2023-06-14T06:54:59;4.40;;;4.00;;
38085;SDS011;23896;50.678;10.924;2023-06-14T06:57:26;5.68;;;4.10;;
38085;SDS011;23896;50.678;10.924;2023-06-14T06:59:54;5.50;;;5.03;;
38085;SDS011;23896;50.678;10.924;2023-06-14T07:02:20;7.82;;;7.00;;
38085;SDS011;23896;50.678;10.924;2023-06-14T07:04:49;5.97;;;5.00;;
38085;SDS011;23896;50.678;10.924;2023-06-14T07:07:16;4.30;;;3.83;;
38085;SDS011;23896;50.678;10.924;2023-06-14T07:09:42;8.30;;;5.20;;
38085;SDS011;23896;50.678;10.924;2023-06-14T07:12:09;5.93;;;4.95;;
38085;SDS011;23896;50.678;10.924;2023-06-14T07:14:39;5.30;;;4.10;;
38085;SDS011;23896;50.678;10.924;2023-06-14T07:17:05;5.15;;;3.75;;
38085;SDS011;23896;50.678;10.924;2023-06-14T07:19:34;5.57;;;4.60;;
38085;SDS011;23896;50.678;10.924;2023-06-14T07:22:01;10.98;;;6.93;;
38085;SDS011;23896;50.678;10.924;2023-06-14T07:24:30;8.98;;;6.43;;
38085;SDS011;23896;50.678;10.924;2023-06-14T07:26:56;6.28;;;4.47;;
38085;SDS011;23896;50.678;10.924;2023-06-14T07:29:23;9.52;;;4.20;;
38085;SDS011;23896;50.678;10.924;2023-06-14T07:31:50;6.00;;;4.20;;
38085;SDS011;23896;50.678;10.924;2023-06-14T07:34:17;9.93;;;8.95;;
38085;SDS011;23896;50.678;10.924;2023-06-14T07:36:47;22.08;;;14.65;;
38085;SDS011;23896;50.678;10.924;2023-06-14T07:39:13;12.65;;;7.88;;
38085;SDS011;23896;50.678;10.924;2023-06-14T07:41:39;7.78;;;4.80;;
38085;SDS011;23896;50.678;10.924;2023-06-14T07:44:06;6.50;;;5.15;;
38085;SDS011;23896;50.678;10.924;2023-06-14T07:46:32;8.73;;;5.38;;
38085;SDS011;23896;50.678;10.924;2023-06-14T07:48:59;5.68;;;4.07;;
38085;SDS011;23896;50.678;10.924;2023-06-14T07:51:35;5.53;;;3.20;;
38085;SDS011;23896;50.678;10.924;2023-06-14T07:54:18;4.53;;;3.50;;
38085;SDS011;23896;50.678;10.924;2023-06-14T07:56:52;7.97;;;4.43;;
38085;SDS011;23896;50.678;10.924;2023-06-14T07:59:21;8.05;;;5.15;;
38085;SDS011;23896;50.678;10.924;2023-06-14T08:01:51;6.65;;;4.10;;
38085;SDS011;23896;50.678;10.924;2023-06-14T08:04:17;4.22;;;3.80;;
38085;SDS011;23896;50.678;10.924;2023-06-14T08:06:43;7.13;;;4.35;;
38085;SDS011;23896;50.678;10.924;2023-06-14T08:09:10;5.65;;;4.90;;
38085;SDS011;23896;50.678;10.924;2023-06-14T08:11:37;5.82;;;4.10;;
38085;SDS011;23896;50.678;10.924;2023-06-14T08:14:03;12.70;;;4.85;;
38085;SDS011;23896;50.678;10.924;2023-06-14T08:16:33;5.80;;;4.20;;
38085;SDS011;23896;50.678;10.924;2023-06-14T08:19:00;11.13;;;4.50;;
38085;SDS011;23896;50.678;10.924;2023-06-14T08:21:42;5.15;;;4.28;;
38085;SDS011;23896;50.678;10.924;2023-06-14T08:24:16;5.53;;;4.30;;
38085;SDS011;23896;50.678;10.924;2023-06-14T08:26:44;7.85;;;4.60;;
38085;SDS011;23896;50.678;10.924;2023-06-14T08:29:10;4.75;;;3.60;;
38085;SDS011;23896;50.678;10.924;2023-06-14T08:31:36;4.63;;;4.15;;
38085;SDS011;23896;50.678;10.924;2023-06-14T08:34:03;4.35;;;3.95;;
38085;SDS011;23896;50.678;10.924;2023-06-14T08:36:29;5.63;;;4.10;;
38085;SDS011;23896;50.678;10.924;2023-06-14T08:38:56;6.22;;;3.85;;
38085;SDS011;23896;50.678;10.924;2023-06-14T08:41:23;3.67;;;3.38;;
38085;SDS011;23896;50.678;10.924;2023-06-14T08:43:50;4.40;;;3.53;;
38085;SDS011;23896;50.678;10.924;2023-06-14T08:46:17;3.55;;;3.25;;
38085;SDS011;23896;50.678;10.924;2023-06-14T08:48:46;15.20;;;3.53;;
38085;SDS011;23896;50.678;10.924;2023-06-14T08:51:13;4.72;;;3.33;;
38085;SDS011;23896;50.678;10.924;2023-06-14T08:53:44;5.40;;;2.97;;
38085;SDS011;23896;50.678;10.924;2023-06-14T08:56:11;6.38;;;3.53;;
38085;SDS011;23896;50.678;10.924;2023-06-14T08:58:41;3.50;;;3.00;;
38085;SDS011;23896;50.678;10.924;2023-06-14T09:01:10;3.33;;;2.85;;
38085;SDS011;23896;50.678;10.924;2023-06-14T09:03:40;3.53;;;3.33;;
38085;SDS011;23896;50.678;10.924;2023-06-14T09:06:07;5.35;;;3.22;;
38085;SDS011;23896;50.678;10.924;2023-06-14T09:08:42;4.20;;;3.47;;
38085;SDS011;23896;50.678;10.924;2023-06-14T09:11:12;4.70;;;3.15;;
38085;SDS011;23896;50.678;10.924;2023-06-14T09:13:40;5.38;;;3.42;;
38085;SDS011;23896;50.678;10.924;2023-06-14T09:16:16;4.28;;;3.88;;
38085;SDS011;23896;50.678;10.924;2023-06-14T09:18:48;6.82;;;4.18;;
38085;SDS011;23896;50.678;10.924;2023-06-14T09:21:20;8.25;;;2.88;;
38085;SDS011;23896;50.678;10.924;2023-06-14T09:23:50;4.85;;;4.10;;
38085;SDS011;23896;50.678;10.924;2023-06-14T09:26:20;6.18;;;3.25;;
38085;SDS011;23896;50.678;10.924;2023-06-14T09:28:49;3.47;;;3.08;;
38085;SDS011;23896;50.678;10.924;2023-06-14T09:31:17;6.30;;;3.10;;
38085;SDS011;23896;50.678;10.924;2023-06-14T09:33:45;3.42;;;3.00;;
38085;SDS011;23896;50.678;10.924;2023-06-14T09:36:18;4.85;;;3.17;;
38085;SDS011;23896;50.678;10.924;2023-06-14T09:38:52;6.50;;;3.33;;
38085;SDS011;23896;50.678;10.924;2023-06-14T09:41:19;6.53;;;3.63;;
38085;SDS011;23896;50.678;10.924;2023-06-14T09:43:46;6.28;;;4.28;;
38085;SDS011;23896;50.678;10.924;2023-06-14T09:46:13;6.60;;;3.20;;
38085;SDS011;23896;50.678;10.924;2023-06-14T09:48:39;4.75;;;3.50;;
38085;SDS011;23896;50.678;10.924;2023-06-14T09:51:10;6.10;;;3.70;;
38085;SDS011;23896;50.678;10.924;2023-06-14T09:53:39;5.28;;;3.22;;
38085;SDS011;23896;50.678;10.924;2023-06-14T09:56:26;4.53;;;3.17;;
38085;SDS011;23896;50.678;10.924;2023-06-14T09:59:03;3.65;;;2.90;;
38085;SDS011;23896;50.678;10.924;2023-06-14T10:01:30;4.97;;;3.72;;
38085;SDS011;23896;50.678;10.924;2023-06-14T10:04:01;3.92;;;3.53;;
38085;SDS011;23896;50.678;10.924;2023-06-14T10:06:29;3.72;;;3.50;;
38085;SDS011;23896;50.678;10.924;2023-06-14T10:08:57;5.05;;;3.38;;
38085;SDS011;23896;50.678;10.924;2023-06-14T10:11:26;6.43;;;3.42;;
38085;SDS011;23896;50.678;10.924;2023-06-14T10:13:55;5.22;;;3.35;;
38085;SDS011;23896;50.678;10.924;2023-06-14T10:16:24;4.97;;;3.33;;
38085;SDS011;23896;50.678;10.924;2023-06-14T10:19:04;7.65;;;3.28;;
38085;SDS011;23896;50.678;10.924;2023-06-14T10:21:33;5.10;;;3.35;;
38085;SDS011;23896;50.678;10.924;2023-06-14T10:24:12;4.47;;;3.60;;
38085;SDS011;23896;50.678;10.924;2023-06-14T10:26:50;4.88;;;3.30;;
38085;SDS011;23896;50.678;10.924;2023-06-14T10:29:16;3.33;;;2.60;;
38085;SDS011;23896;50.678;10.924;2023-06-14T10:31:45;5.75;;;3.05;;
38085;SDS011;23896;50.678;10.924;2023-06-14T10:34:12;5.13;;;2.70;;
38085;SDS011;23896;50.678;10.924;2023-06-14T10:36:41;3.45;;;2.70;;
38085;SDS011;23896;50.678;10.924;2023-06-14T10:39:15;3.38;;;2.97;;
38085;SDS011;23896;50.678;10.924;2023-06-14T10:41:42;3.38;;;3.08;;
38085;SDS011;23896;50.678;10.924;2023-06-14T10:47:04;3.25;;;2.58;;
38085;SDS011;23896;50.678;10.924;2023-06-14T10:49:37;2.70;;;2.50;;
38085;SDS011;23896;50.678;10.924;2023-06-14T10:52:08;2.80;;;2.60;;
38085;SDS011;23896;50.678;10.924;2023-06-14T10:57:20;3.35;;;3.05;;
38085;SDS011;23896;50.678;10.924;2023-06-14T10:59:46;3.55;;;2.63;;
38085;SDS011;23896;50.678;10.924;2023-06-14T11:02:21;3.28;;;2.50;;
38085;SDS011;23896;50.678;10.924;2023-06-14T11:04:53;4.68;;;2.53;;
38085;SDS011;23896;50.678;10.924;2023-06-14T11:07:35;3.22;;;2.65;;
38085;SDS011;23896;50.678;10.924;2023-06-14T11:10:10;2.22;;;2.08;;
38085;SDS011;23896;50.678;10.924;2023-06-14T11:12:41;4.22;;;2.35;;
38085;SDS011;23896;50.678;10.924;2023-06-14T11:15:08;2.85;;;2.50;;
38085;SDS011;23896;50.678;10.924;2023-06-14T11:17:35;3.95;;;2.78;;
38085;SDS011;23896;50.678;10.924;2023-06-14T11:20:09;2.40;;;2.20;;
38085;SDS011;23896;50.678;10.924;2023-06-14T11:22:40;2.67;;;2.45;;
38085;SDS011;23896;50.678;10.924;2023-06-14T11:25:08;2.42;;;2.22;;
38085;SDS011;23896;50.678;10.924;2023-06-14T11:27:35;2.22;;;2.13;;
38085;SDS011;23896;50.678;10.924;2023-06-14T11:30:02;5.38;;;2.35;;
38085;SDS011;23896;50.678;10.924;2023-06-14T11:32:30;3.75;;;2.47;;
38085;SDS011;23896;50.678;10.924;2023-06-14T11:34:56;2.85;;;2.58;;
38085;SDS011;23896;50.678;10.924;2023-06-14T11:37:25;2.60;;;2.40;;
38085;SDS011;23896;50.678;10.924;2023-06-14T11:39:51;4.45;;;2.97;;
38085;SDS011;23896;50.678;10.924;2023-06-14T11:42:20;2.35;;;2.22;;
38085;SDS011;23896;50.678;10.924;2023-06-14T11:44:52;2.58;;;2.20;;
38085;SDS011;23896;50.678;10.924;2023-06-14T11:47:19;5.55;;;2.53;;
38085;SDS011;23896;50.678;10.924;2023-06-14T11:49:45;2.60;;;2.40;;
38085;SDS011;23896;50.678;10.924;2023-06-14T11:52:12;3.08;;;2.50;;
38085;SDS011;23896;50.678;10.924;2023-06-14T11:54:41;10.38;;;2.83;;
38085;SDS011;23896;50.678;10.924;2023-06-14T11:57:08;5.63;;;3.00;;
38085;SDS011;23896;50.678;10.924;2023-06-14T11:59:38;2.08;;;1.98;;
38085;SDS011;23896;50.678;10.924;2023-06-14T12:02:05;5.40;;;2.38;;
38085;SDS011;23896;50.678;10.924;2023-06-14T12:04:34;3.50;;;2.58;;
38085;SDS011;23896;50.678;10.924;2023-06-14T12:07:09;4.70;;;3.15;;
38085;SDS011;23896;50.678;10.924;2023-06-14T12:09:41;6.25;;;2.60;;
38085;SDS011;23896;50.678;10.924;2023-06-14T12:12:09;2.65;;;2.42;;
38085;SDS011;23896;50.678;10.924;2023-06-14T12:14:36;5.28;;;2.60;;
38085;SDS011;23896;50.678;10.924;2023-06-14T12:17:05;3.00;;;2.42;;
38085;SDS011;23896;50.678;10.924;2023-06-14T12:19:41;5.72;;;2.47;;
38085;SDS011;23896;50.678;10.924;2023-06-14T12:22:09;3.03;;;2.78;;
38085;SDS011;23896;50.678;10.924;2023-06-14T12:24:36;5.55;;;2.90;;
38085;SDS011;23896;50.678;10.924;2023-06-14T12:27:03;2.75;;;2.55;;
38085;SDS011;23896;50.678;10.924;2023-06-14T12:29:31;2.63;;;2.42;;
38085;SDS011;23896;50.678;10.924;2023-06-14T12:31:58;3.83;;;2.70;;
38085;SDS011;23896;50.678;10.924;2023-06-14T12:34:26;3.67;;;2.70;;
38085;SDS011;23896;50.678;10.924;2023-06-14T12:36:53;3.60;;;2.65;;
38085;SDS011;23896;50.678;10.924;2023-06-14T12:39:27;4.28;;;2.70;;
38085;SDS011;23896;50.678;10.924;2023-06-14T12:41:57;2.67;;;2.20;;
38085;SDS011;23896;50.678;10.924;2023-06-14T12:44:24;4.63;;;2.13;;
38085;SDS011;23896;50.678;10.924;2023-06-14T12:46:51;3.08;;;2.88;;
38085;SDS011;23896;50.678;10.924;2023-06-14T12:49:21;3.83;;;2.25;;
38085;SDS011;23896;50.678;10.924;2023-06-14T12:51:48;3.03;;;2.22;;
38085;SDS011;23896;50.678;10.924;2023-06-14T12:54:15;4.88;;;2.90;;
38085;SDS011;23896;50.678;10.924;2023-06-14T12:56:43;3.08;;;2.60;;
38085;SDS011;23896;50.678;10.924;2023-06-14T12:59:11;4.43;;;3.00;;
38085;SDS011;23896;50.678;10.924;2023-06-14T13:01:39;3.42;;;2.60;;
38085;SDS011;23896;50.678;10.924;2023-06-14T13:04:06;3.22;;;2.33;;
38085;SDS011;23896;50.678;10.924;2023-06-14T13:06:33;4.03;;;2.33;;
38085;SDS011;23896;50.678;10.924;2023-06-14T13:08:59;4.25;;;2.75;;
38085;SDS011;23896;50.678;10.924;2023-06-14T13:11:27;4.07;;;2.88;;
38085;SDS011;23896;50.678;10.924;2023-06-14T13:13:53;4.85;;;2.55;;
38085;SDS011;23896;50.678;10.924;2023-06-14T13:16:19;2.92;;;2.35;;
38085;SDS011;23896;50.678;10.924;2023-06-14T13:18:51;2.92;;;2.60;;
38085;SDS011;23896;50.678;10.924;2023-06-14T13:21:18;7.70;;;3.25;;
38085;SDS011;23896;50.678;10.924;2023-06-14T13:23:44;3.50;;;3.20;;
38085;SDS011;23896;50.678;10.924;2023-06-14T13:26:13;3.88;;;2.80;;
38085;SDS011;23896;50.678;10.924;2023-06-14T13:28:41;2.83;;;2.63;;
38085;SDS011;23896;50.678;10.924;2023-06-14T13:31:08;4.22;;;2.58;;
38085;SDS011;23896;50.678;10.924;2023-06-14T13:33:37;6.47;;;3.67;;
38085;SDS011;23896;50.678;10.924;2023-06-14T13:36:04;5.60;;;3.67;;
38085;SDS011;23896;50.678;10.924;2023-06-14T13:38:32;4.40;;;3.15;;
38085;SDS011;23896;50.678;10.924;2023-06-14T13:41:02;9.13;;;3.72;;
38085;SDS011;23896;50.678;10.924;2023-06-14T13:43:31;4.82;;;3.13;;
38085;SDS011;23896;50.678;10.924;2023-06-14T13:45:58;2.90;;;2.58;;
38085;SDS011;23896;50.678;10.924;2023-06-14T13:48:37;5.35;;;3.55;;
38085;SDS011;23896;50.678;10.924;2023-06-14T13:51:07;4.18;;;3.88;;
38085;SDS011;23896;50.678;10.924;2023-06-14T13:53:37;5.38;;;2.90;;
38085;SDS011;23896;50.678;10.924;2023-06-14T13:56:04;4.22;;;3.58;;
38085;SDS011;23896;50.678;10.924;2023-06-14T13:58:30;3.80;;;2.88;;
38085;SDS011;23896;50.678;10.924;2023-06-14T14:00:57;3.50;;;3.20;;
38085;SDS011;23896;50.678;10.924;2023-06-14T14:03:25;4.40;;;3.05;;
38085;SDS011;23896;50.678;10.924;2023-06-14T14:05:51;3.58;;;2.70;;
38085;SDS011;23896;50.678;10.924;2023-06-14T14:08:17;5.22;;;3.10;;
38085;SDS011;23896;50.678;10.924;2023-06-14T14:10:44;7.28;;;2.78;;
38085;SDS011;23896;50.678;10.924;2023-06-14T14:13:10;6.53;;;3.53;;
38085;SDS011;23896;50.678;10.924;2023-06-14T14:15:40;3.20;;;2.90;;
38085;SDS011;23896;50.678;10.924;2023-06-14T14:18:09;4.80;;;3.50;;
38085;SDS011;23896;50.678;10.924;2023-06-14T14:20:39;3.88;;;3.45;;
38085;SDS011;23896;50.678;10.924;2023-06-14T14:23:06;6.97;;;3.38;;
38085;SDS011;23896;50.678;10.924;2023-06-14T14:25:33;4.40;;;4.00;;
38085;SDS011;23896;50.678;10.924;2023-06-14T14:27:59;6.80;;;4.88;;
38085;SDS011;23896;50.678;10.924;2023-06-14T14:30:25;8.20;;;7.50;;
38085;SDS011;23896;50.678;10.924;2023-06-14T14:32:52;4.05;;;3.03;;
38085;SDS011;23896;50.678;10.924;2023-06-14T14:35:18;3.88;;;2.90;;
38085;SDS011;23896;50.678;10.924;2023-06-14T14:37:47;3.53;;;3.22;;
38085;SDS011;23896;50.678;10.924;2023-06-14T14:40:14;4.85;;;2.85;;
38085;SDS011;23896;50.678;10.924;2023-06-14T14:42:41;3.45;;;3.15;;
38085;SDS011;23896;50.678;10.924;2023-06-14T14:45:07;9.55;;;3.25;;